.
WxDataArchive / Data Records for 2015-06-20
2015-06-19 June 2015 2015-06-21

Data Records for Saturday, 20 June 2015

Time	Temp	Chill	HIndex	Humid	Dewpt	 Wind 	HiWind	WindDir	Rain 	Barom
-----	----	-----	------	-----	-----	------	------	-------	-----	-----
00:00	65.6	65.6	65.6	81	59.6	2	5	90	0.00	29.949 
00:05	65.6	65.6	65.6	81	59.6	1	3	90	0.00	29.949 
00:10	65.6	65.6	65.6	82	59.9	1	3	90	0.00	29.949 
00:15	65.5	65.5	65.5	82	59.9	1	3	90	0.00	29.950 
00:20	65.5	65.5	65.5	82	59.9	1	3	90	0.00	29.950 
00:25	65.5	65.5	65.5	82	59.9	0	2	90	0.00	29.950 
00:30	65.5	65.5	65.5	82	59.9	0	2	90	0.00	29.947 
00:35	65.5	65.5	65.5	82	59.9	1	5	90	0.00	29.947 
00:40	65.3	65.3	65.3	83	60.0	1	4	90	0.00	29.947 
00:45	65.3	65.3	65.3	83	60.0	1	3	90	0.00	29.943 
00:50	65.2	65.2	65.2	83	59.9	1	5	90	0.00	29.943 
00:55	65.2	65.2	65.2	83	59.9	1	4	90	0.00	29.943 
01:00	65.0	65.0	65.0	83	59.7	1	4	90	0.00	29.928 
01:05	65.0	65.0	65.0	83	59.7	1	4	90	0.00	29.928 
01:10	64.8	64.8	64.8	83	59.5	1	4	90	0.00	29.928 
01:15	64.7	64.7	64.7	83	59.4	1	3	90	0.00	29.915 
01:20	64.7	64.7	64.7	83	59.4	1	3	90	0.00	29.915 
01:25	64.5	64.5	64.5	83	59.2	1	4	45	0.00	29.915 
01:30	64.3	64.3	64.3	82	58.7	1	3	45	0.00	29.901 
01:35	64.3	64.3	64.3	81	58.3	2	6	112	0.00	29.901 
01:40	64.3	64.3	64.3	82	58.7	1	4	90	0.00	29.901 
01:45	64.2	64.2	64.2	82	58.6	2	4	90	0.00	29.902 
01:50	64.2	64.2	64.2	82	58.6	1	4	90	0.00	29.902 
01:55	64.2	64.2	64.2	82	58.6	1	4	90	0.00	29.902 
02:00	64.2	64.2	64.2	83	58.9	1	4	90	0.00	29.900 
02:05	64.0	64.0	64.0	83	58.7	1	3	90	0.00	29.900 
02:10	63.9	63.9	63.9	83	58.6	1	2	90	0.00	29.900 
02:15	63.9	63.9	63.9	83	58.6	0	2	90	0.00	29.900 
02:20	63.9	63.9	63.9	84	59.0	1	3	90	0.00	29.900 
02:25	63.9	63.9	63.9	84	59.0	1	2	90	0.00	29.900 
02:30	63.9	63.9	63.9	84	59.0	1	4	90	0.00	29.900 
02:35	63.9	63.9	63.9	84	59.0	1	3	90	0.00	29.900 
02:40	63.9	63.9	63.9	84	59.0	1	5	90	0.00	29.900 
02:45	63.9	63.9	63.9	84	59.0	1	4	90	0.00	29.899 
02:50	63.9	63.9	63.9	84	59.0	2	5	90	0.00	29.899 
02:55	63.9	63.9	63.9	84	59.0	1	4	90	0.00	29.899 
03:00	63.9	63.9	63.9	84	59.0	1	5	90	0.00	29.896 
03:05	64.0	64.0	64.0	85	59.4	1	3	90	0.00	29.896 
03:10	64.0	64.0	64.0	85	59.4	1	3	90	0.00	29.896 
03:15	64.0	64.0	64.0	85	59.4	0	3	90	0.00	29.892 
03:20	64.0	64.0	64.0	85	59.4	0	2	90	0.00	29.892 
03:25	64.0	64.0	64.0	85	59.4	0	2	90	0.00	29.892 
03:30	64.2	64.2	64.2	85	59.6	0	1	90	0.00	29.892 
03:35	64.0	64.0	64.0	85	59.4	1	3	90	0.00	29.892 
03:40	64.0	64.0	64.0	86	59.7	1	3	90	0.00	29.892 
03:45	64.2	64.2	64.2	86	59.9	0	2	90	0.00	29.893 
03:50	64.2	64.2	64.2	86	59.9	0	2	90	0.00	29.893 
03:55	64.2	64.2	64.2	86	59.9	0	2	90	0.00	29.893 
04:00	64.2	64.2	64.2	87	60.2	1	2	90	0.00	29.889 
04:05	64.2	64.2	64.2	87	60.2	1	4	90	0.00	29.889 
04:10	64.2	64.2	64.2	87	60.2	1	4	90	0.00	29.889 
04:15	64.3	64.3	64.3	87	60.3	1	4	90	0.00	29.884 
04:20	64.3	64.3	64.3	87	60.3	1	3	90	0.00	29.884 
04:25	64.3	64.3	64.3	87	60.3	1	3	90	0.00	29.884 
04:30	64.3	64.3	64.3	87	60.3	1	3	90	0.00	29.884 
04:35	64.2	64.2	64.2	87	60.2	0	3	90	0.00	29.884 
04:40	64.2	64.2	64.2	87	60.2	1	3	90	0.00	29.884 
04:45	64.2	64.2	64.2	87	60.2	1	4	90	0.00	29.881 
04:50	64.2	64.2	64.2	87	60.2	0	4	90	0.00	29.881 
04:55	64.2	64.2	64.2	87	60.2	1	7	90	0.00	29.881 
05:00	64.2	64.2	64.2	87	60.2	1	5	90	0.00	29.871 
05:05	64.2	64.2	64.2	87	60.2	3	7	90	0.00	29.871 
05:10	64.2	64.2	64.2	87	60.2	2	5	68	0.00	29.871 
05:15	64.2	64.2	64.2	87	60.2	1	3	68	0.00	29.863 
05:20	64.2	64.2	64.2	87	60.2	1	5	68	0.00	29.863 
05:25	64.2	64.2	64.2	87	60.2	1	4	68	0.00	29.863 
05:30	64.2	64.2	64.2	87	60.2	2	5	68	0.00	29.861 
05:35	64.2	64.2	64.2	87	60.2	1	3	68	0.00	29.861 
05:40	64.2	64.2	64.2	87	60.2	2	5	68	0.00	29.861 
05:45	64.2	64.2	64.2	88	60.6	2	5	90	0.00	29.862 
05:50	64.2	64.2	64.2	88	60.6	1	4	90	0.00	29.862 
05:55	64.2	64.2	64.2	88	60.6	1	3	90	0.00	29.862 
06:00	64.2	64.2	64.2	88	60.6	2	5	90	0.00	29.859 
06:05	64.3	64.3	64.3	88	60.7	1	4	90	0.00	29.859 
06:10	64.3	64.3	64.3	88	60.7	1	5	90	0.00	29.859 
06:15	64.3	64.3	64.3	89	61.0	1	4	90	0.00	29.857 
06:20	64.3	64.3	64.3	89	61.0	0	4	90	0.00	29.857 
06:25	64.3	64.3	64.3	89	61.0	0	2	90	0.00	29.857 
06:30	64.3	64.3	64.3	89	61.0	1	4	90	0.00	29.850 
06:35	64.3	64.3	64.3	89	61.0	1	4	90	0.00	29.850 
06:40	64.3	64.3	64.3	89	61.0	2	6	90	0.00	29.850 
06:45	64.3	64.3	64.3	89	61.0	1	5	90	0.00	29.848 
06:50	64.2	64.2	64.2	89	60.9	2	4	90	0.00	29.848 
06:55	64.2	64.2	64.2	90	61.2	1	4	90	0.00	29.848 
07:00	64.2	64.2	64.2	90	61.2	0	2	68	0.00	29.849 
07:05	64.2	64.2	64.2	90	61.2	0	3	68	0.00	29.849 
07:10	64.2	64.2	64.2	90	61.2	1	3	45	0.00	29.849 
07:15	64.3	64.3	64.3	90	61.3	1	2	45	0.00	29.848 
07:20	64.3	64.3	64.3	90	61.3	1	4	90	0.00	29.848 
07:25	64.3	64.3	64.3	90	61.3	1	3	90	0.00	29.848 
07:30	64.5	64.5	64.5	90	61.5	0	1	90	0.00	29.849 
07:35	64.5	64.5	64.5	90	61.5	1	4	90	0.00	29.849 
07:40	64.5	64.5	64.5	90	61.5	1	5	112	0.00	29.849 
07:45	64.5	64.5	64.5	91	61.8	0	3	112	0.00	29.844 
07:50	64.7	64.7	64.7	91	62.0	0	2	112	0.00	29.844 
07:55	64.7	64.7	64.7	91	62.0	1	3	112	0.00	29.844 
08:00	64.8	64.8	64.8	91	62.1	0	2	112	0.00	29.847 
08:05	64.8	64.8	64.8	91	62.1	0	3	112	0.00	29.847 
08:10	64.8	64.8	64.8	91	62.1	0	2	112	0.00	29.847 
08:15	65.0	65.0	65.0	91	62.3	1	3	112	0.00	29.849 
08:20	65.0	65.0	65.0	91	62.3	1	4	68	0.00	29.849 
08:25	65.0	65.0	65.0	91	62.3	1	7	68	0.00	29.849 
08:30	65.0	65.0	65.0	91	62.3	1	3	90	0.00	29.848 
08:35	65.2	65.2	65.2	90	62.2	1	5	68	0.00	29.848 
08:40	65.2	65.2	65.2	91	62.5	2	6	90	0.00	29.848 
08:45	65.3	65.3	65.3	91	62.6	0	3	90	0.00	29.845 
08:50	65.3	65.3	65.3	91	62.6	0	3	90	0.00	29.845 
08:55	65.5	65.5	65.5	90	62.5	0	2	90	0.00	29.845 
09:00	65.5	65.5	65.5	90	62.5	1	3	90	0.00	29.840 
09:05	65.6	65.6	65.6	90	62.6	2	4	90	0.00	29.840 
09:10	65.6	65.6	65.6	90	62.6	2	4	68	0.00	29.840 
09:15	65.6	65.6	65.6	91	62.9	1	5	68	0.00	29.830 
09:20	65.8	65.8	65.8	90	62.8	2	5	68	0.00	29.830 
09:25	66.0	66.0	66.0	90	63.0	2	5	90	0.00	29.830 
09:30	66.1	66.1	66.1	90	63.1	2	5	90	0.00	29.831 
09:35	66.1	66.1	66.1	90	63.1	2	6	90	0.00	29.831 
09:40	66.4	66.4	66.4	91	63.7	1	6	90	0.00	29.831 
09:45	66.6	66.6	66.6	91	63.9	2	4	90	0.00	29.825 
09:50	66.8	66.8	66.8	91	64.1	1	3	90	0.00	29.825 
09:55	66.8	66.8	66.8	90	63.8	2	5	90	0.00	29.825 
10:00	66.9	66.9	66.9	90	63.9	2	6	90	0.00	29.829 
10:05	67.1	67.1	67.1	90	64.1	2	4	90	0.00	29.829 
10:10	67.1	67.1	67.1	90	64.1	1	5	90	0.00	29.829 
10:15	67.3	67.3	67.3	90	64.3	0	3	68	0.00	29.846 
10:20	67.4	67.4	67.4	90	64.4	0	3	68	0.00	29.846 
10:25	67.4	67.4	67.4	90	64.4	2	4	68	0.00	29.846 
10:30	67.4	67.4	67.4	90	64.4	1	3	68	0.00	29.845 
10:35	67.6	67.6	67.6	90	64.6	0	3	68	0.00	29.845 
10:40	67.8	67.8	67.8	90	64.8	1	6	68	0.00	29.845 
10:45	67.8	67.8	67.8	89	64.4	2	5	68	0.00	29.847 
10:50	68.1	68.1	68.1	90	65.0	1	3	68	0.00	29.847 
10:55	68.4	68.4	68.4	90	65.3	1	3	68	0.00	29.847 
11:00	68.9	68.9	68.9	89	65.5	0	1	68	0.00	29.847 
11:05	69.1	69.1	69.1	89	65.7	0	3	68	0.00	29.847 
11:10	69.3	69.3	69.3	88	65.6	1	3	68	0.00	29.847 
11:15	69.4	69.4	69.4	88	65.7	1	4	68	0.00	29.849 
11:20	69.6	69.6	69.6	88	65.9	0	2	68	0.00	29.849 
11:25	69.8	69.8	69.8	87	65.7	1	3	68	0.00	29.849 
11:30	69.8	69.8	69.8	87	65.7	0	2	68	0.00	29.857 
11:35	69.8	69.8	69.8	87	65.7	1	3	68	0.00	29.857 
11:40	69.6	69.6	69.6	87	65.6	0	2	22	0.00	29.857 
11:45	69.4	69.4	69.4	87	65.4	1	4	22	0.00	29.862 
11:50	69.4	69.4	69.4	87	65.4	0	2	135	0.00	29.862 
11:55	69.4	69.4	69.4	87	65.4	0	3	135	0.00	29.862 
12:00	69.4	69.4	69.4	87	65.4	0	2	135	0.00	29.849 
12:05	69.6	69.6	69.6	87	65.6	1	4	135	0.00	29.849 
12:10	69.9	69.9	69.9	87	65.8	0	2	135	0.00	29.849 
12:15	70.4	70.4	70.4	86	66.0	1	3	135	0.00	29.847 
12:20	70.6	70.6	70.6	86	66.2	0	2	135	0.00	29.847 
12:25	70.9	70.9	70.9	86	66.5	0	3	135	0.00	29.847 
12:30	71.1	71.1	71.1	85	66.4	0	2	135	0.00	29.847 
12:35	71.5	71.5	71.5	85	66.7	0	2	135	0.00	29.847 
12:40	71.6	71.6	71.6	84	66.5	0	3	135	0.00	29.847 
12:45	71.8	71.8	71.8	84	66.7	0	3	135	0.00	29.845 
12:50	72.0	72.0	72.0	84	66.9	1	3	135	0.00	29.845 
12:55	72.3	72.3	72.3	84	67.2	1	4	0	0.00	29.845 
13:00	72.5	72.5	72.5	83	67.0	1	3	22	0.00	29.827 
13:05	73.0	73.0	73.0	82	67.2	1	3	22	0.00	29.827 
13:10	73.2	73.2	73.2	82	67.4	0	2	22	0.00	29.827 
13:15	73.7	73.7	73.7	81	67.5	0	2	22	0.00	29.826 
13:20	74.0	74.0	74.0	79	67.1	1	4	90	0.00	29.826 
13:25	74.4	74.4	74.4	81	68.2	1	3	90	0.00	29.826 
13:30	74.9	74.9	74.9	80	68.3	1	3	90	0.00	29.812 
13:35	74.9	74.9	74.9	79	67.9	1	3	90	0.00	29.812 
13:40	75.1	75.1	76.0	78	67.8	0	2	90	0.00	29.812 
13:45	75.3	75.3	76.1	79	68.3	1	4	90	0.00	29.794 
13:50	75.6	75.6	76.6	78	68.2	1	3	90	0.00	29.794 
13:55	76.3	76.3	77.6	78	68.9	0	3	90	0.00	29.794 
14:00	76.7	76.7	78.2	77	68.9	0	3	90	0.00	29.781 
14:05	77.2	77.2	79.0	77	69.4	1	4	90	0.00	29.781 
14:10	77.6	77.6	79.6	75	69.0	1	4	90	0.00	29.781 
14:15	77.9	77.9	80.0	75	69.3	1	3	90	0.00	29.771 
14:20	77.6	77.6	79.6	75	69.0	1	5	90	0.00	29.771 
14:25	77.6	77.6	79.6	77	69.8	0	2	90	0.00	29.771 
14:30	76.8	76.8	78.4	76	68.6	0	3	90	0.00	29.790 
14:35	77.0	77.0	78.7	77	69.2	0	2	90	0.00	29.790 
14:40	77.2	77.2	79.0	76	69.0	1	3	90	0.00	29.790 
14:45	77.4	77.4	79.3	75	68.8	0	3	90	0.00	29.794 
14:50	77.4	77.4	79.3	75	68.8	0	1	90	0.00	29.794 
14:55	77.2	77.2	79.0	74	68.3	0	2	90	0.00	29.794 
15:00	77.6	77.6	79.6	77	69.8	0	1	90	0.00	29.779 
15:05	77.9	77.9	80.0	74	68.9	0	1	90	0.00	29.779 
15:10	77.9	77.9	80.0	73	68.5	0	2	90	0.00	29.779 
15:15	77.9	77.9	80.0	73	68.5	0	0	---	0.00	29.787 
15:20	77.9	77.9	80.0	74	68.9	0	2	90	0.00	29.787 
15:25	77.7	77.7	79.7	73	68.3	0	1	90	0.00	29.787 
15:30	77.7	77.7	79.7	74	68.7	0	1	90	0.00	29.774 
15:35	77.9	77.9	80.0	73	68.5	0	1	90	0.00	29.774 
15:40	77.9	77.9	80.0	73	68.5	0	1	90	0.00	29.774 
15:45	78.1	78.1	80.3	74	69.1	0	1	90	0.00	29.778 
15:50	78.5	78.5	81.0	75	69.9	0	1	90	0.00	29.778 
15:55	78.6	78.6	81.1	75	70.0	0	1	90	0.00	29.778 
16:00	78.6	78.6	81.1	74	69.6	0	2	90	0.00	29.766 
16:05	78.6	78.6	81.1	74	69.6	0	2	90	0.00	29.766 
16:10	78.6	78.6	81.1	74	69.6	0	3	90	0.00	29.766 
16:15	78.8	78.8	81.3	73	69.4	0	2	112	0.00	29.755 
16:20	79.0	79.0	81.6	73	69.6	0	1	112	0.00	29.755 
16:25	79.4	79.4	82.4	74	70.4	0	3	112	0.00	29.755 
16:30	79.6	79.6	82.5	72	69.8	1	3	112	0.00	29.740 
16:35	79.9	79.9	83.1	73	70.4	0	2	112	0.00	29.740 
16:40	80.3	80.3	83.9	73	70.8	0	2	112	0.00	29.740 
16:45	80.3	80.3	83.4	70	69.6	0	2	112	0.00	29.733 
16:50	80.3	80.3	83.6	71	70.0	0	2	112	0.00	29.733 
16:55	79.8	79.8	82.9	72	69.9	0	2	112	0.00	29.733 
17:00	79.4	79.4	82.3	73	70.0	1	3	112	0.00	29.747 
17:05	79.0	79.0	81.6	73	69.6	0	2	112	0.00	29.747 
17:10	78.8	78.8	81.4	74	69.8	0	3	112	0.00	29.747 
17:15	78.6	78.6	81.1	74	69.6	0	2	112	0.00	29.756 
17:20	78.6	78.6	81.1	75	70.0	0	1	112	0.00	29.756 
17:25	78.6	78.6	81.1	75	70.0	0	1	112	0.00	29.756 
17:30	78.5	78.5	81.0	75	69.9	0	0	---	0.00	29.778 
17:35	78.3	78.3	80.7	76	70.1	0	2	112	0.00	29.778 
17:40	78.3	78.3	80.7	76	70.1	0	1	112	0.00	29.778 
17:45	78.3	78.3	80.7	76	70.1	0	1	112	0.00	29.768 
17:50	78.5	78.5	81.1	77	70.7	0	1	112	0.00	29.768 
17:55	78.5	78.5	81.1	77	70.7	0	2	112	0.00	29.768 
18:00	78.6	78.6	81.2	77	70.8	0	1	112	0.00	29.763 
18:05	78.6	78.6	81.2	77	70.8	0	1	112	0.00	29.763 
18:10	78.5	78.5	81.0	76	70.3	0	3	112	0.00	29.763 
18:15	78.5	78.5	81.1	77	70.7	0	1	112	0.00	29.764 
18:20	78.6	78.6	81.2	76	70.4	0	2	112	0.00	29.764 
18:25	78.8	78.8	81.6	77	71.0	0	3	112	0.00	29.764 
18:30	78.6	78.6	81.2	77	70.8	0	2	112	0.00	29.762 
18:35	78.6	78.6	81.2	77	70.8	0	2	112	0.00	29.762 
18:40	78.6	78.6	81.2	77	70.8	0	1	112	0.00	29.762 
18:45	78.5	78.5	81.1	77	70.7	0	2	112	0.00	29.772 
18:50	78.3	78.3	80.7	77	70.5	0	1	112	0.00	29.772 
18:55	78.3	78.3	80.7	76	70.1	0	2	112	0.00	29.772 
19:00	78.5	78.5	81.1	77	70.7	0	1	112	0.00	29.778 
19:05	78.5	78.5	81.0	75	69.9	0	2	112	0.00	29.778 
19:10	78.5	78.5	80.9	74	69.5	0	2	112	0.00	29.778 
19:15	78.3	78.3	80.6	74	69.3	0	2	112	0.00	29.776 
19:20	78.3	78.3	80.6	74	69.3	0	1	112	0.00	29.776 
19:25	78.3	78.3	80.6	73	68.9	1	3	90	0.00	29.776 
19:30	78.3	78.3	80.6	74	69.3	0	2	90	0.00	29.779 
19:35	78.1	78.1	80.3	75	69.5	0	2	90	0.00	29.779 
19:40	77.9	77.9	80.0	75	69.3	0	2	90	0.00	29.779 
19:45	77.7	77.7	79.7	75	69.1	0	1	90	0.00	29.778 
19:50	77.7	77.7	79.7	76	69.5	0	0	---	0.00	29.778 
19:55	77.7	77.7	79.7	76	69.5	0	1	90	0.00	29.778 
20:00	77.6	77.6	79.6	76	69.4	0	1	90	0.00	29.785 
20:05	77.4	77.4	79.3	75	68.8	0	2	90	0.00	29.785 
20:10	77.2	77.2	79.0	75	68.6	0	3	90	0.00	29.785 
20:15	77.0	77.0	78.7	76	68.8	1	4	90	0.00	29.806 
20:20	77.0	77.0	78.7	76	68.8	1	4	270	0.00	29.806 
20:25	76.8	76.8	78.4	76	68.6	1	3	270	0.00	29.806 
20:30	76.7	76.7	78.2	77	68.9	1	4	270	0.00	29.808 
20:35	76.7	76.7	78.2	77	68.9	0	2	292	0.00	29.808 
20:40	76.5	76.5	77.9	77	68.7	0	1	292	0.00	29.808 
20:45	76.3	76.3	77.6	78	68.9	1	3	292	0.00	29.792 
20:50	76.1	76.1	77.3	78	68.7	0	2	292	0.00	29.792 
20:55	76.0	76.0	77.2	78	68.6	0	1	292	0.00	29.792 
21:00	75.8	75.8	76.8	79	68.8	0	3	292	0.00	29.792 
21:05	75.6	75.6	76.5	79	68.6	0	1	292	0.00	29.792 
21:10	75.4	75.4	76.1	80	68.8	0	1	292	0.00	29.792 
21:15	75.3	75.3	76.0	80	68.7	1	3	292	0.00	29.753 
21:20	75.1	75.1	75.6	81	68.9	0	0	---	0.00	29.753 
21:25	74.9	74.9	74.9	81	68.7	0	1	292	0.00	29.753 
21:30	74.7	74.7	74.7	81	68.5	0	0	---	0.00	29.763 
21:35	74.6	74.6	74.6	82	68.7	0	1	292	0.00	29.763 
21:40	74.4	74.4	74.4	82	68.5	0	0	---	0.00	29.763 
21:45	74.2	74.2	74.2	83	68.7	0	1	292	0.00	29.772 
21:50	74.0	74.0	74.0	83	68.5	0	0	---	0.00	29.772 
21:55	73.9	73.9	73.9	83	68.4	0	0	---	0.00	29.772 
22:00	73.7	73.7	73.7	84	68.6	0	1	292	0.00	29.781 
22:05	73.7	73.7	73.7	84	68.6	0	1	292	0.00	29.781 
22:10	73.5	73.5	73.5	84	68.4	0	1	292	0.00	29.781 
22:15	73.5	73.5	73.5	84	68.4	0	2	292	0.00	29.796 
22:20	73.5	73.5	73.5	85	68.7	0	0	---	0.00	29.796 
22:25	73.3	73.3	73.3	85	68.5	0	0	---	0.00	29.796 
22:30	73.2	73.2	73.2	85	68.4	0	0	---	0.00	29.777 
22:35	73.2	73.2	73.2	85	68.4	0	1	292	0.00	29.777 
22:40	73.2	73.2	73.2	85	68.4	0	0	---	0.00	29.777 
22:45	73.0	73.0	73.0	85	68.2	0	1	292	0.00	29.787 
22:50	73.0	73.0	73.0	85	68.2	0	0	---	0.00	29.787 
22:55	72.8	72.8	72.8	85	68.0	0	0	---	0.00	29.787 
23:00	72.8	72.8	72.8	85	68.0	0	0	---	0.00	29.780 
23:05	72.7	72.7	72.7	86	68.3	0	0	---	0.00	29.780 
23:10	72.7	72.7	72.7	86	68.3	0	1	292	0.00	29.780 
23:15	72.7	72.7	72.7	86	68.3	0	1	292	0.00	29.786 
23:20	72.5	72.5	72.5	86	68.1	0	1	292	0.00	29.786 
23:25	72.5	72.5	72.5	86	68.1	0	1	292	0.00	29.786 
23:30	72.3	72.3	72.3	86	67.9	0	1	292	0.00	29.779 
23:35	72.3	72.3	72.3	87	68.2	0	1	292	0.00	29.779 
23:40	72.3	72.3	72.3	87	68.2	0	0	---	0.00	29.779 
23:45	72.3	72.3	72.3	87	68.2	0	0	---	0.00	29.795 
23:50	72.3	72.3	72.3	87	68.2	0	1	292	0.00	29.795 
23:55	72.1	72.1	72.1	87	68.0	0	1	292	0.00	29.795 

CoCoRaHS
IN-AL-39
A2 Web Hosting
Creative Commons License
GoDaddy
search engine by freefind advanced

loaded 2018-11-20 06:33:30 • last modified 2010-11-18 10:43:29
Privacy PolicyDisclaimer
• wx.awcolley.com is powered by PmWiki v.2002016 •
• all content (unless otherwise noted) © 2018 A W Colley